Address 0x086ff014ed5c7946d1e766a3504dbba299014138

 
Txn Hash Method
Block
From
To
Value [Txn Fee]
0xaa4383afbb2abed4c3e52d8791188721e75a3c56d9fe17f313a23fcabbe8eebb0xe69c8ab0118526352021-10-17 13:48:2021 hrs 59 mins ago0x086ff014ed5c7946d1e766a3504dbba299014138OUT 0x6778f69f83c7d42612500efe0bcd278c112688f60 BNB0.001251905
0x981fafef8b9a16c4babae287b8cb2a1f383171c3c386eb548594a21e9a2a13c70x3ff9a4ae118526282021-10-17 13:47:5922 hrs ago0x086ff014ed5c7946d1e766a3504dbba299014138OUT 0x6778f69f83c7d42612500efe0bcd278c112688f60 BNB0.000863255
0xe29339872a71eca2d31c3fd1c80c089db2f5d09ac422dcba9f06ef32063b49290x5f575529118526052021-10-17 13:46:5022 hrs 1 min ago0x086ff014ed5c7946d1e766a3504dbba299014138OUT Metamask: Swap Router0.007 BNB0.001033125
0x264e259607914c35bfbc6dc9e2a6587061b6f5178eb44fae0fb3dbd6e17847220xe69c8ab0118195622021-10-16 10:05:012 days 1 hr ago0x086ff014ed5c7946d1e766a3504dbba299014138OUT 0x6778f69f83c7d42612500efe0bcd278c112688f60 BNB0.001251905
0xe6feea705de39a378d6c001737eb219fced7a919159eb0b0b2892be4772d89a10xe69c8ab0117895142021-10-15 8:57:283 days 2 hrs ago0x086ff014ed5c7946d1e766a3504dbba299014138OUT 0x6778f69f83c7d42612500efe0bcd278c112688f60 BNB0.001251905
0x48a414fd26d7540adad23d338532f203086a66852843ce379452903f56d02e9e0xe69c8ab0117606442021-10-14 8:49:274 days 2 hrs ago0x086ff014ed5c7946d1e766a3504dbba299014138OUT 0x6778f69f83c7d42612500efe0bcd278c112688f60 BNB0.00116883
0xd154682741ca4b5a7842feb33fcd65aa74dc3dfd42aa8a0437fa799dd9b1a93f0x288bed04117227752021-10-13 0:45:415 days 11 hrs ago0x086ff014ed5c7946d1e766a3504dbba299014138OUT 0xe0dd2e782c406914971e12243023d61acd5e29580 BNB0.001189655
0x05fa63b3af7bf60116545f6b9f927c3acec4e7bb6802757204ef2077f0d007aeSet Approval For...117227692021-10-13 0:45:235 days 11 hrs ago0x086ff014ed5c7946d1e766a3504dbba299014138OUT 0xd1204d12995192c23860a06e68e3ad102bbe98770 BNB0.0002415
0x1f751e9661e3ca3a903245885e78738190d434c1c82b2b697ed39f1c5dea98f80x82c07d5d117227092021-10-13 0:42:235 days 11 hrs ago0x086ff014ed5c7946d1e766a3504dbba299014138OUT 0x6778f69f83c7d42612500efe0bcd278c112688f60 BNB0.001155045
0x91df784cc227baebc668a05bb9896148761789f73438520631f8146aedd10af90x5334e8b4117226992021-10-13 0:41:535 days 11 hrs ago0x086ff014ed5c7946d1e766a3504dbba299014138OUT 0x6778f69f83c7d42612500efe0bcd278c112688f60 BNB0.000802735
0x4aeea33e9068fbbdd47e5db1c723905421b094a49da8ffc85ec5ca44c175bc910xe69c8ab0117226112021-10-13 0:37:295 days 11 hrs ago0x086ff014ed5c7946d1e766a3504dbba299014138OUT 0x6778f69f83c7d42612500efe0bcd278c112688f60 BNB0.001251905
0x03dc0f54677c80419325a7d34d77ebea68173399693cc0336a456f768e7f8d0e0xe69c8ab0116912792021-10-11 22:22:306 days 13 hrs ago0x086ff014ed5c7946d1e766a3504dbba299014138OUT 0x6778f69f83c7d42612500efe0bcd278c112688f60 BNB0.001251905
0xc6a6412b50cf2c4f6bfa2b74d5e24e0061898ad0c526097d741a52b48da46d96Transfer116912462021-10-11 22:20:516 days 13 hrs agoBinance: Hot Wallet 10 IN 0x086ff014ed5c7946d1e766a3504dbba2990141380.0195 BNB0.00021
0x1b8f54b4eac14159d94cbad6dd0ad2462e1fbb01a98e4906e5640977381c17910xe69c8ab0116629652021-10-10 22:05:207 days 13 hrs ago0x086ff014ed5c7946d1e766a3504dbba299014138OUT 0x6778f69f83c7d42612500efe0bcd278c112688f60 BNB0.001251795
0xc8e4ed38f5d575ae12ea77bd0cd56850910261b4bf815ff3edac7b2b4305f20d0xe69c8ab0116339792021-10-09 21:50:028 days 13 hrs ago0x086ff014ed5c7946d1e766a3504dbba299014138OUT 0x6778f69f83c7d42612500efe0bcd278c112688f60 BNB0.001507515
0xedd01319bcc97879f1e9a85926429bf5232f2c301725d7c358f7db5bfef2ab520x3ff9a4ae116339642021-10-09 21:49:178 days 13 hrs ago0x086ff014ed5c7946d1e766a3504dbba299014138OUT 0x6778f69f83c7d42612500efe0bcd278c112688f60 BNB0.000683365
0x402f7261d7743c852fb3c04f16cfcb0215eaaaef317c83d1f0a2643077130a8c0x94ac0d18116339622021-10-09 21:49:118 days 13 hrs ago0x086ff014ed5c7946d1e766a3504dbba299014138OUT 0x6778f69f83c7d42612500efe0bcd278c112688f60 BNB0.000540685
0xafcbcd8f465dc8ffce17fe7685bfe9261cdd44ee6031bcf90cca91bda8925d92Buy Starter Bloc...116282162021-10-09 17:01:458 days 18 hrs ago0x086ff014ed5c7946d1e766a3504dbba299014138OUT 0xd69b93a27c33190974b7107962da5af5f435e2620 BNB0.003361875
0xa430a2d2745b443cb31b8222b13c096c3b169786e60e904e35f90115fd5128b5Approve116282112021-10-09 17:01:308 days 18 hrs ago0x086ff014ed5c7946d1e766a3504dbba299014138OUT 0x287db351d5230716246cfb46af8153025eda6a0a0 BNB0.000129695
0xec8cea0f69d77a0952f225fd0136245a77f49023c89e285cc5681b3bd0b3be730x5f575529116282012021-10-09 17:01:008 days 18 hrs ago0x086ff014ed5c7946d1e766a3504dbba299014138OUT Metamask: Swap Router0.03 BNB0.001592345
0x950a07b77eb23b6f445262396afbb9952dbf322f4951894ddd5e3be13a7d51f0Buy Starter Bloc...116281382021-10-09 16:57:518 days 18 hrs ago0x086ff014ed5c7946d1e766a3504dbba299014138OUT 0xd69b93a27c33190974b7107962da5af5f435e2620 BNB0.000356275
0x3dbdebd0093eba611beadfe7d4b0a3126c73f13ddb9aedb4e839f15936041475Approve116281312021-10-09 16:57:308 days 18 hrs ago0x086ff014ed5c7946d1e766a3504dbba299014138OUT 0x287db351d5230716246cfb46af8153025eda6a0a0 BNB0.000225695
0xd86120355ef4c32e4b8eaab1d1ecfc6137e3726413609ca54b12ec2340483b94Transfer116281082021-10-09 16:56:218 days 18 hrs agoBinance: Hot Wallet 10 IN 0x086ff014ed5c7946d1e766a3504dbba2990141380.04 BNB0.00021
0xa9672891d919816afaa159a836e127e512eb582ba45ad582f620ec9cd8e2be9dBuy NFT116033762021-10-08 20:13:519 days 15 hrs ago0x086ff014ed5c7946d1e766a3504dbba299014138OUT 0xe0dd2e782c406914971e12243023d61acd5e29580 BNB0.000902665
0x70d2ed71d2f98258a11e029c0cbbc6e950303381c29d3fccfd22d3c61083df4bBuy NFT116033322021-10-08 20:11:389 days 15 hrs ago0x086ff014ed5c7946d1e766a3504dbba299014138OUT 0xe0dd2e782c406914971e12243023d61acd5e29580 BNB0.000902665
[ Download CSV Export 
Parent Txn Hash Block From To Value
Loading

Contract Name:
0 BNB

Compiler Version
0

Optimization Enabled:
0 BNB

Other Settings:
-NA-
Block Transaction Gas Used Reward
Age Block Fee Address BC Fee Address Voting Power Jailed Incoming
Block Uncle Number Difficulty Gas Used Reward
Loading
Loading
Make sure to use the "Vote Down" button for any spammy posts, and the "Vote Up" for interesting conversations.